Time;durP1;ratioP1;P1;durP2;ratioP2;P2;SDS_P1;SDS_P2;PMS_P1;PMS_P2;Temp;Humidity;BMP_temperature;BMP_pressure;BME280_temperature;BME280_humidity;BME280_pressure;Samples;Min_cycle;Max_cycle;Signal;HPM_P1;HPM_P2
2023/12/15 00:00:00;;;;;;;11.50;4.70;;;;;;;-2.70;77.22;99049.79;107624;1254;60005;-40
2023/12/15 00:02:37;;;;;;;12.30;5.00;;;;;;;-2.64;77.33;99054.83;107508;1258;72740;-40
2023/12/15 00:05:05;;;;;;;10.60;4.40;;;;;;;-2.51;77.08;99056.98;107517;1255;66292;-40
2023/12/15 00:07:33;;;;;;;14.20;4.70;;;;;;;-2.45;77.20;99056.61;107576;1259;72678;-40
2023/12/15 00:10:01;;;;;;;13.20;5.50;;;;;;;-2.42;77.44;99064.48;107501;1259;60535;-40
2023/12/15 00:12:28;;;;;;;18.30;5.30;;;;;;;-2.39;77.46;99062.28;107530;1254;60322;-40
2023/12/15 00:14:56;;;;;;;15.00;5.20;;;;;;;-2.37;76.92;99065.05;106746;1254;1002921;-40
2023/12/15 00:17:23;;;;;;;13.50;5.20;;;;;;;-2.40;76.93;99069.88;107503;1253;68059;-40
2023/12/15 00:19:51;;;;;;;12.60;4.50;;;;;;;-2.37;76.67;99076.80;107484;1259;72724;-40
2023/12/15 00:22:19;;;;;;;13.00;4.60;;;;;;;-2.31;76.81;99080.45;107486;1258;60460;-40
2023/12/15 00:24:47;;;;;;;12.40;4.70;;;;;;;-2.28;77.00;99082.54;107518;1259;61114;-40
2023/12/15 00:27:14;;;;;;;15.10;5.60;;;;;;;-2.26;77.17;99089.85;107458;1254;72600;-40
2023/12/15 00:29:42;;;;;;;16.10;5.10;;;;;;;-2.27;77.07;99098.62;107499;1254;66427;-40
2023/12/15 00:32:09;;;;;;;12.80;5.50;;;;;;;-2.28;77.00;99101.83;107473;1253;71376;-40
2023/12/15 00:34:37;;;;;;;17.80;5.20;;;;;;;-2.28;77.41;99103.52;107565;1254;60881;-40
2023/12/15 00:37:04;;;;;;;11.70;4.90;;;;;;;-2.21;77.22;99100.30;107500;1254;60486;-39
2023/12/15 00:39:36;;;;;;;14.60;5.70;;;;;;;-2.13;76.76;99107.23;107506;1254;72592;-39
2023/12/15 00:42:05;;;;;;;12.30;5.10;;;;;;;-2.13;77.14;99109.49;107534;1254;66313;-40
2023/12/15 00:44:33;;;;;;;15.30;5.30;;;;;;;-2.17;77.25;99113.18;107429;1257;72565;-40
2023/12/15 00:47:01;;;;;;;17.30;6.00;;;;;;;-2.24;77.05;99116.33;107610;1257;60613;-40
2023/12/15 00:49:29;;;;;;;14.10;5.40;;;;;;;-2.30;77.43;99123.25;107487;1254;60341;-40
2023/12/15 00:51:57;;;;;;;11.10;4.70;;;;;;;-2.27;77.55;99129.11;106854;1254;1002954;-40
2023/12/15 00:54:24;;;;;;;16.50;5.10;;;;;;;-2.21;77.53;99130.63;107529;1252;66626;-41
2023/12/15 00:56:52;;;;;;;13.90;4.70;;;;;;;-2.18;77.72;99134.53;107476;1254;71396;-41
2023/12/15 00:59:19;;;;;;;13.60;5.00;;;;;;;-2.19;77.96;99134.50;107378;1257;60190;-39
2023/12/15 01:01:47;;;;;;;14.50;5.60;;;;;;;-2.22;78.04;99131.93;107408;1254;60351;-38
2023/12/15 01:04:15;;;;;;;12.90;5.50;;;;;;;-2.22;78.37;99134.56;107393;1254;73840;-39
2023/12/15 01:06:42;;;;;;;11.00;4.50;;;;;;;-2.22;78.44;99134.45;107400;1259;66738;-39
2023/12/15 01:09:10;;;;;;;11.80;4.90;;;;;;;-2.12;78.34;99133.94;107443;1257;72636;-39
2023/12/15 01:11:37;;;;;;;13.60;5.40;;;;;;;-2.07;78.29;99135.85;107407;1259;60447;-40
2023/12/15 01:14:05;;;;;;;10.30;4.90;;;;;;;-2.08;78.47;99139.05;107377;1255;60338;-39
2023/12/15 01:16:33;;;;;;;9.90;4.80;;;;;;;-2.10;78.56;99140.52;107351;1254;73868;-39
2023/12/15 01:19:00;;;;;;;13.50;5.80;;;;;;;-2.13;78.68;99143.41;107431;1254;66286;-40
2023/12/15 01:21:28;;;;;;;11.00;4.80;;;;;;;-2.16;78.91;99140.89;107450;1259;72689;-40
2023/12/15 01:23:56;;;;;;;12.10;5.40;;;;;;;-2.09;79.01;99149.42;107375;1255;60526;-39
2023/12/15 01:26:23;;;;;;;18.80;4.60;;;;;;;-2.02;78.84;99150.95;107381;1259;60480;-40
2023/12/15 01:28:51;;;;;;;12.60;4.50;;;;;;;-2.00;79.07;99153.44;107413;1254;73855;-39
2023/12/15 01:31:18;;;;;;;10.80;5.40;;;;;;;-1.98;79.39;99153.03;107448;1254;67591;-40
2023/12/15 01:33:46;;;;;;;10.40;4.90;;;;;;;-1.94;79.45;99149.80;107437;1254;73238;-39
2023/12/15 01:36:13;;;;;;;11.10;4.80;;;;;;;-1.94;78.99;99151.45;107439;1257;60559;-39
2023/12/15 01:38:41;;;;;;;9.80;4.50;;;;;;;-1.94;78.54;99153.84;107412;1253;60351;-39
2023/12/15 01:41:08;;;;;;;9.10;4.10;;;;;;;-1.87;78.32;99154.73;107453;1253;73880;-39
2023/12/15 01:43:36;;;;;;;8.80;4.10;;;;;;;-1.82;78.03;99165.87;107422;1254;65808;-39
2023/12/15 01:46:04;;;;;;;9.00;4.60;;;;;;;-1.84;77.89;99169.98;107349;1254;72815;-39
2023/12/15 01:48:41;;;;;;;8.40;4.70;;;;;;;-1.89;77.93;99178.85;107418;1254;60406;-39
2023/12/15 01:51:09;;;;;;;12.60;4.70;;;;;;;-1.92;78.14;99195.47;107334;1254;60492;-40
2023/12/15 01:53:36;;;;;;;18.90;4.90;;;;;;;-1.93;78.17;99204.66;107439;1254;73916;-39
2023/12/15 01:56:05;;;;;;;8.30;4.10;;;;;;;-1.91;78.04;99208.48;107414;1259;67903;-39
2023/12/15 01:58:32;;;;;;;10.60;4.80;;;;;;;-1.86;77.92;99209.86;107304;1260;71402;-39
2023/12/15 02:01:00;;;;;;;10.20;5.20;;;;;;;-1.87;77.94;99212.95;107441;1257;60421;-39
2023/12/15 02:03:28;;;;;;;9.40;4.90;;;;;;;-1.90;78.24;99206.45;107427;1259;59301;-39
2023/12/15 02:05:55;;;;;;;8.30;5.20;;;;;;;-1.93;78.33;99207.10;106671;1253;1002860;-39
2023/12/15 02:08:23;;;;;;;12.90;4.60;;;;;;;-1.99;78.44;99203.02;106686;1259;1003150;-40
2023/12/15 02:10:51;;;;;;;7.70;4.20;;;;;;;-1.97;78.50;99204.41;106678;1257;1002993;-39
2023/12/15 02:13:18;;;;;;;12.80;4.90;;;;;;;-1.92;78.43;99206.84;107328;1253;60421;-39
2023/12/15 02:15:46;;;;;;;9.00;5.00;;;;;;;-1.94;78.74;99207.96;107430;1253;60351;-39
2023/12/15 02:18:13;;;;;;;10.70;4.70;;;;;;;-1.97;79.19;99207.89;107367;1254;72625;-39
2023/12/15 02:20:41;;;;;;;9.30;5.00;;;;;;;-1.98;79.51;99215.12;107399;1259;66425;-39
2023/12/15 02:23:08;;;;;;;9.30;4.60;;;;;;;-1.97;79.37;99226.28;107419;1253;72795;-39
2023/12/15 02:25:36;;;;;;;7.60;4.80;;;;;;;-1.89;79.50;99237.62;107417;1257;60928;-39
2023/12/15 02:28:04;;;;;;;11.10;4.70;;;;;;;-1.86;79.49;99239.56;107446;1254;60394;-39
2023/12/15 02:30:31;;;;;;;9.70;4.90;;;;;;;-1.88;79.58;99250.95;107389;1254;72592;-39
2023/12/15 02:32:59;;;;;;;12.90;5.20;;;;;;;-1.88;79.82;99257.59;107346;1254;67862;-40
2023/12/15 02:35:27;;;;;;;10.00;4.70;;;;;;;-1.88;79.99;99264.40;107387;1254;72685;-41
2023/12/15 02:37:54;;;;;;;9.20;4.60;;;;;;;-1.79;79.95;99273.70;107416;1254;60839;-41
2023/12/15 02:40:22;;;;;;;9.50;4.80;;;;;;;-1.70;79.52;99274.02;107376;1254;60511;-41
2023/12/15 02:42:50;;;;;;;9.90;4.70;;;;;;;-1.68;79.59;99280.37;107407;1254;73783;-41
2023/12/15 02:45:17;;;;;;;13.60;5.40;;;;;;;-1.69;79.70;99281.44;107426;1259;67294;-39
2023/12/15 02:47:45;;;;;;;10.20;5.00;;;;;;;-1.69;79.64;99293.92;105812;1254;1003814;-39
2023/12/15 02:50:13;;;;;;;9.60;4.90;;;;;;;-1.68;79.76;99294.77;107393;1257;60463;-39
2023/12/15 02:52:40;;;;;;;9.30;4.50;;;;;;;-1.62;79.47;99302.36;107406;1254;59697;-39
2023/12/15 02:55:10;;;;;;;7.30;4.60;;;;;;;-1.55;79.23;99307.29;107347;1254;73841;-39
2023/12/15 02:57:38;;;;;;;10.90;4.80;;;;;;;-1.51;79.60;99310.98;107440;1253;65781;-39
2023/12/15 03:00:07;;;;;;;14.40;6.00;;;;;;;-1.52;79.41;99313.91;107477;1253;72713;-39
2023/12/15 03:02:34;;;;;;;11.70;5.20;;;;;;;-1.57;79.51;99317.73;107467;1259;60329;-40
2023/12/15 03:05:02;;;;;;;13.90;5.80;;;;;;;-1.60;79.59;99320.80;107424;1253;60382;-39
2023/12/15 03:07:30;;;;;;;10.20;4.70;;;;;;;-1.57;79.61;99321.67;107444;1259;73847;-39
2023/12/15 03:09:58;;;;;;;8.90;5.10;;;;;;;-1.50;79.46;99326.91;107444;1253;67042;-39
2023/12/15 03:12:25;;;;;;;8.20;5.20;;;;;;;-1.51;79.41;99335.08;107347;1257;72856;-39
2023/12/15 03:14:55;;;;;;;11.10;5.90;;;;;;;-1.54;79.73;99342.42;107435;1255;60483;-40
2023/12/15 03:17:22;;;;;;;11.40;6.20;;;;;;;-1.55;79.94;99352.21;107425;1254;60464;-40
2023/12/15 03:19:50;;;;;;;12.50;5.40;;;;;;;-1.56;80.04;99357.60;107437;1254;73837;-41
2023/12/15 03:22:18;;;;;;;12.20;5.30;;;;;;;-1.51;80.10;99356.33;107458;1259;66273;-40
2023/12/15 03:24:46;;;;;;;15.70;6.30;;;;;;;-1.39;80.01;99358.24;107402;1259;72744;-40
2023/12/15 03:27:13;;;;;;;15.20;6.20;;;;;;;-1.31;80.07;99359.52;107451;1257;60460;-40
2023/12/15 03:29:41;;;;;;;13.40;6.20;;;;;;;-1.28;80.03;99358.92;107354;1254;60346;-40
2023/12/15 03:32:08;;;;;;;14.90;6.70;;;;;;;-1.26;80.04;99359.87;107457;1254;73103;-41
2023/12/15 03:34:36;;;;;;;13.20;6.20;;;;;;;-1.25;79.99;99357.70;107448;1253;67896;-40
2023/12/15 03:37:03;;;;;;;14.40;6.20;;;;;;;-1.25;80.06;99352.08;107414;1253;71473;-41
2023/12/15 03:39:31;;;;;;;14.60;6.00;;;;;;;-1.19;79.63;99353.09;107420;1254;60905;-41
2023/12/15 03:42:01;;;;;;;9.70;5.60;;;;;;;-1.10;79.48;99350.77;107372;1254;60337;-41
2023/12/15 03:44:28;;;;;;;10.70;5.80;;;;;;;-1.05;79.45;99354.96;107439;1253;73854;-40
2023/12/15 03:46:56;;;;;;;14.70;6.40;;;;;;;-1.00;79.65;99354.16;107428;1254;66726;-40
2023/12/15 03:49:23;;;;;;;13.30;6.30;;;;;;;-0.96;79.48;99361.29;106668;1258;1003049;-40
2023/12/15 03:51:51;;;;;;;12.30;6.30;;;;;;;-0.91;79.31;99365.29;107084;1259;303428;-40
2023/12/15 03:57:12;;;;;;;17.70;6.50;;;;;;;-0.79;78.72;99369.40;105097;1285;600892;-40
2023/12/15 03:59:39;;;;;;;13.00;6.00;;;;;;;-0.65;78.56;99381.48;106621;1267;59235;-40
2023/12/15 04:02:12;;;;;;;14.40;6.70;;;;;;;-0.60;78.14;99383.11;106648;1266;60109;-40
2023/12/15 04:04:39;;;;;;;17.50;6.70;;;;;;;-0.58;78.12;99382.30;106663;1265;71391;-39
2023/12/15 04:07:07;;;;;;;15.30;6.30;;;;;;;-0.54;78.13;99387.84;106629;1265;67634;-39
2023/12/15 04:09:34;;;;;;;16.80;6.80;;;;;;;-0.50;77.89;99391.94;106647;1270;72715;-39
2023/12/15 04:12:04;;;;;;;16.10;6.90;;;;;;;-0.54;77.16;99400.08;106625;1263;119887;-39
2023/12/15 04:14:32;;;;;;;11.90;6.70;;;;;;;-0.57;77.26;99406.08;106662;1269;60135;-40
2023/12/15 04:17:00;;;;;;;18.30;5.90;;;;;;;-0.49;77.17;99409.13;106647;1264;72253;-40
2023/12/15 04:19:28;;;;;;;11.30;5.90;;;;;;;-0.35;76.97;99411.47;106722;1263;65326;-39
2023/12/15 04:21:55;;;;;;;10.90;5.90;;;;;;;-0.28;77.09;99411.38;106648;1267;71795;-39
2023/12/15 04:24:23;;;;;;;13.60;5.90;;;;;;;-0.25;76.91;99417.67;106752;1263;59608;-40
2023/12/15 04:26:54;;;;;;;14.20;6.20;;;;;;;-0.21;76.89;99424.59;106786;1264;60174;-40
2023/12/15 04:29:22;;;;;;;13.40;6.10;;;;;;;-0.20;76.32;99428.48;106769;1263;71850;-39
2023/12/15 04:31:49;;;;;;;14.00;6.00;;;;;;;-0.23;76.27;99438.95;106816;1263;67625;-40
2023/12/15 04:34:17;;;;;;;10.40;5.50;;;;;;;-0.27;76.06;99445.98;106762;1269;72522;-40
2023/12/15 04:36:45;;;;;;;14.00;5.30;;;;;;;-0.30;76.01;99451.95;106720;1267;60960;-39
2023/12/15 04:39:12;;;;;;;9.80;5.30;;;;;;;-0.27;75.67;99451.10;106690;1264;59577;-39
2023/12/15 04:41:40;;;;;;;11.50;5.30;;;;;;;-0.25;75.56;99455.93;106660;1263;73056;-39
2023/12/15 04:44:07;;;;;;;14.50;5.90;;;;;;;-0.27;75.53;99460.90;106788;1264;67893;-39
2023/12/15 04:46:36;;;;;;;12.10;6.00;;;;;;;-0.29;75.52;99466.20;106753;1267;71423;-40
2023/12/15 04:49:04;;;;;;;11.30;6.20;;;;;;;-0.29;75.90;99478.84;106715;1265;59650;-40
2023/12/15 04:51:32;;;;;;;15.80;6.40;;;;;;;-0.26;75.79;99486.47;106751;1268;60031;-40
2023/12/15 04:54:00;;;;;;;12.80;6.20;;;;;;;-0.27;75.60;99491.38;106729;1269;73073;-39
2023/12/15 04:56:27;;;;;;;11.60;5.50;;;;;;;-0.34;75.29;99494.81;106740;1264;67632;-40
2023/12/15 04:58:55;;;;;;;13.10;5.40;;;;;;;-0.32;75.42;99498.52;106786;1264;72661;-39
2023/12/15 05:01:25;;;;;;;13.30;5.70;;;;;;;-0.27;75.17;99499.63;106646;1267;59423;-39
2023/12/15 05:03:52;;;;;;;12.10;6.80;;;;;;;-0.28;75.36;99509.76;106653;1263;60261;-39
2023/12/15 05:06:22;;;;;;;15.80;6.20;;;;;;;-0.32;75.33;99513.91;106768;1263;73130;-40
2023/12/15 05:08:51;;;;;;;18.00;6.50;;;;;;;-0.39;75.39;99519.75;106765;1269;67614;-40
2023/12/15 05:11:19;;;;;;;19.20;6.00;;;;;;;-0.47;75.52;99523.72;106804;1270;72646;-40
2023/12/15 05:13:48;;;;;;;15.50;5.90;;;;;;;-0.55;75.54;99529.34;106753;1269;59759;-40
2023/12/15 05:16:16;;;;;;;15.70;5.80;;;;;;;-0.61;75.65;99529.94;106775;1264;60064;-40
2023/12/15 05:18:44;;;;;;;13.70;6.10;;;;;;;-0.58;75.71;99539.92;106079;1264;1016354;-40
2023/12/15 05:21:12;;;;;;;15.60;6.40;;;;;;;-0.60;76.00;99548.13;106774;1267;68092;-41
2023/12/15 05:23:39;;;;;;;16.70;6.40;;;;;;;-0.64;76.19;99548.77;106751;1264;72772;-40
2023/12/15 05:26:07;;;;;;;18.30;6.70;;;;;;;-0.69;76.40;99551.21;106750;1264;59461;-41
2023/12/15 05:28:34;;;;;;;12.10;7.40;;;;;;;-0.74;76.55;99557.00;106754;1264;60072;-41
2023/12/15 05:31:02;;;;;;;17.60;7.30;;;;;;;-0.78;76.76;99556.35;106737;1264;73111;-41
2023/12/15 05:33:29;;;;;;;12.40;6.30;;;;;;;-0.78;76.73;99560.08;106777;1264;65795;-41
2023/12/15 05:35:57;;;;;;;15.10;6.60;;;;;;;-0.74;76.63;99564.13;106742;1268;72775;-41
2023/12/15 05:38:25;;;;;;;13.50;6.90;;;;;;;-0.73;77.13;99561.89;106727;1267;59666;-41
2023/12/15 05:40:52;;;;;;;17.30;7.20;;;;;;;-0.72;77.09;99566.98;106768;1264;59545;-48
2023/12/15 05:43:20;;;;;;;15.70;6.80;;;;;;;-0.74;77.26;99572.12;106774;1264;73044;-40
2023/12/15 05:45:48;;;;;;;13.30;6.90;;;;;;;-0.78;77.19;99573.11;106792;1269;67571;-41
2023/12/15 05:48:16;;;;;;;14.30;6.10;;;;;;;-0.83;77.50;99574.97;106031;1264;1003190;-41
2023/12/15 05:50:43;;;;;;;14.10;5.60;;;;;;;-0.80;77.49;99580.09;106759;1264;60862;-40
2023/12/15 05:53:11;;;;;;;13.30;6.20;;;;;;;-0.72;77.26;99587.38;106794;1264;60021;-41
2023/12/15 05:55:39;;;;;;;15.60;6.90;;;;;;;-0.73;77.44;99594.16;106792;1264;71840;-41
2023/12/15 05:58:06;;;;;;;14.50;7.10;;;;;;;-0.78;77.71;99603.25;106750;1264;65483;-40
2023/12/15 06:00:34;;;;;;;17.00;7.50;;;;;;;-0.82;77.80;99601.73;106647;1267;72279;-40
2023/12/15 06:03:01;;;;;;;20.50;8.10;;;;;;;-0.88;77.88;99606.04;106655;1264;59648;-41
2023/12/15 06:05:33;;;;;;;13.60;7.20;;;;;;;-0.91;78.25;99607.17;106641;1264;60085;-41
2023/12/15 06:08:02;;;;;;;13.50;6.00;;;;;;;-0.86;78.27;99609.39;106666;1263;73073;-40
2023/12/15 06:10:29;;;;;;;15.80;6.40;;;;;;;-0.79;78.04;99615.14;106653;1264;67578;-40
2023/12/15 06:12:57;;;;;;;16.00;6.90;;;;;;;-0.80;78.29;99619.23;106754;1264;72671;-41
2023/12/15 06:15:24;;;;;;;17.30;7.10;;;;;;;-0.84;78.56;99625.54;106773;1264;59593;-40
2023/12/15 06:17:52;;;;;;;12.20;6.70;;;;;;;-0.88;78.58;99623.28;106743;1263;60049;-40
2023/12/15 06:20:19;;;;;;;14.50;7.00;;;;;;;-0.92;78.99;99630.02;106765;1264;73025;-41
2023/12/15 06:22:47;;;;;;;17.30;6.90;;;;;;;-0.91;79.09;99634.77;107248;1257;67569;-40
2023/12/15 06:25:18;;;;;;;16.00;6.20;;;;;;;-0.85;79.04;99636.46;107226;1257;72712;-41
2023/12/15 06:27:46;;;;;;;15.40;6.40;;;;;;;-0.78;78.84;99649.46;107281;1257;59642;-41
2023/12/15 06:30:13;;;;;;;15.00;7.00;;;;;;;-0.78;79.14;99650.95;107229;1257;60117;-41
2023/12/15 06:32:41;;;;;;;12.60;6.90;;;;;;;-0.78;79.32;99659.73;107176;1257;73121;-41
2023/12/15 06:35:10;;;;;;;17.00;6.20;;;;;;;-0.76;79.47;99661.99;107202;1257;67692;-41
2023/12/15 06:37:37;;;;;;;11.90;7.00;;;;;;;-0.75;79.84;99663.33;107146;1263;72698;-41
2023/12/15 06:40:06;;;;;;;15.00;6.40;;;;;;;-0.67;79.46;99664.02;107061;1257;60909;-41
2023/12/15 06:42:34;;;;;;;18.50;7.80;;;;;;;-0.57;79.43;99662.45;107284;1256;60019;-40
2023/12/15 06:45:07;;;;;;;18.10;7.50;;;;;;;-0.53;79.34;99664.00;107110;1257;71852;-41
2023/12/15 06:47:38;;;;;;;14.00;8.00;;;;;;;-0.53;79.47;99666.46;107134;1257;67659;-40
2023/12/15 06:50:07;;;;;;;14.50;8.50;;;;;;;-0.54;79.38;99672.13;107130;1257;72681;-41
2023/12/15 06:52:36;;;;;;;16.20;8.40;;;;;;;-0.57;79.61;99669.10;107280;1257;59617;-41
2023/12/15 06:55:04;;;;;;;13.40;7.40;;;;;;;-0.53;79.53;99671.27;107259;1257;60076;-41
2023/12/15 06:57:32;;;;;;;15.10;7.60;;;;;;;-0.53;79.35;99657.36;107246;1257;71749;-40
2023/12/15 06:59:59;;;;;;;15.70;8.20;;;;;;;-0.42;79.51;99672.49;107256;1256;67556;-41
2023/12/15 07:02:27;;;;;;;16.90;8.60;;;;;;;-0.43;79.82;99672.87;107259;1257;72652;-40
2023/12/15 07:04:55;;;;;;;16.60;7.90;;;;;;;-0.36;80.21;99677.89;107248;1257;59381;-41
2023/12/15 07:07:22;;;;;;;16.10;8.50;;;;;;;-0.27;80.07;99674.19;107206;1257;60014;-40
2023/12/15 07:09:50;;;;;;;15.50;8.00;;;;;;;-0.19;79.59;99677.62;107275;1257;72786;-40
2023/12/15 07:12:17;;;;;;;15.50;8.40;;;;;;;-0.10;79.42;99682.55;107261;1260;67568;-41
2023/12/15 07:14:45;;;;;;;18.80;9.10;;;;;;;-0.08;79.42;99685.30;107198;1260;72704;-41
2023/12/15 07:17:13;;;;;;;18.00;8.80;;;;;;;-0.06;79.57;99689.29;107237;1257;59990;-41
2023/12/15 07:19:41;;;;;;;15.60;8.60;;;;;;;-0.05;79.52;99690.45;107238;1258;59525;-41
2023/12/15 07:22:08;;;;;;;18.60;9.30;;;;;;;-0.07;79.21;99693.02;107217;1257;73074;-41
2023/12/15 07:24:36;;;;;;;14.20;8.30;;;;;;;-0.03;79.38;99696.23;107263;1257;66941;-41
2023/12/15 07:27:04;;;;;;;15.70;9.90;;;;;;;0.01;79.28;99700.66;107182;1260;72738;-41
2023/12/15 07:29:32;;;;;;;20.30;10.90;;;;;;;-0.04;79.69;99700.88;107254;1257;59996;-41
2023/12/15 07:32:00;;;;;;;16.00;9.10;;;;;;;-0.07;80.24;99706.50;107216;1256;59706;-40
2023/12/15 07:34:27;;;;;;;18.50;10.70;;;;;;;-0.10;80.43;99712.97;107229;1257;73043;-39
2023/12/15 07:36:55;;;;;;;19.60;10.10;;;;;;;-0.09;80.81;99717.23;107217;1256;67582;-39
2023/12/15 07:39:22;;;;;;;14.10;9.20;;;;;;;0.02;80.73;99721.56;107172;1257;72657;-39
2023/12/15 07:41:50;;;;;;;15.70;9.20;;;;;;;0.13;80.78;99724.98;107199;1257;59588;-40
2023/12/15 07:44:18;;;;;;;17.20;9.40;;;;;;;0.18;80.74;99724.66;107235;1257;59512;-39
2023/12/15 07:46:46;;;;;;;16.10;10.50;;;;;;;0.19;80.91;99727.15;107225;1256;72975;-40
2023/12/15 07:49:13;;;;;;;16.40;10.10;;;;;;;0.23;81.10;99732.02;107170;1256;66811;-40
2023/12/15 07:51:41;;;;;;;17.30;10.00;;;;;;;0.28;81.18;99735.21;107246;1262;72687;-40
2023/12/15 07:54:09;;;;;;;16.00;9.80;;;;;;;0.39;81.00;99737.60;107215;1257;59949;-39
2023/12/15 07:56:37;;;;;;;18.00;9.90;;;;;;;0.52;80.83;99737.16;107210;1257;60024;-39
2023/12/15 07:59:04;;;;;;;14.00;9.80;;;;;;;0.58;80.79;99744.45;107170;1257;73066;-39
2023/12/15 08:01:32;;;;;;;19.40;10.00;;;;;;;0.63;80.70;99759.97;107167;1257;66526;-40
2023/12/15 08:04:00;;;;;;;21.10;11.30;;;;;;;0.67;80.83;99760.67;107171;1257;72679;-39
2023/12/15 08:06:27;;;;;;;15.00;9.70;;;;;;;0.78;81.00;99772.77;107177;1257;61009;-39
2023/12/15 08:08:55;;;;;;;16.10;9.70;;;;;;;0.91;80.03;99774.22;107159;1257;60454;-39
2023/12/15 08:11:23;;;;;;;17.40;10.00;;;;;;;1.01;79.69;99775.73;107197;1257;73841;-40
2023/12/15 08:13:50;;;;;;;17.50;10.00;;;;;;;1.04;79.47;99775.92;107215;1257;68026;-39
2023/12/15 08:16:18;;;;;;;17.70;10.00;;;;;;;1.06;79.41;99783.54;107192;1260;72688;-39
2023/12/15 08:18:46;;;;;;;19.10;10.60;;;;;;;1.06;79.29;99792.33;107152;1257;60388;-39
2023/12/15 08:21:13;;;;;;;20.50;9.60;;;;;;;1.05;79.01;99799.52;107174;1257;60418;-40
2023/12/15 08:23:41;;;;;;;14.60;9.90;;;;;;;1.07;78.80;99800.19;105720;1257;1003086;-40
2023/12/15 08:26:08;;;;;;;17.70;10.90;;;;;;;1.13;78.99;99808.59;107191;1257;67925;-39
2023/12/15 08:28:36;;;;;;;15.20;10.00;;;;;;;1.07;78.97;99804.45;107139;1260;72759;-40
2023/12/15 08:31:05;;;;;;;17.10;10.50;;;;;;;1.08;78.70;99812.77;107156;1257;60815;-40
2023/12/15 08:33:32;;;;;;;17.80;10.80;;;;;;;1.07;79.02;99814.01;107231;1257;60528;-40
2023/12/15 08:36:00;;;;;;;15.10;9.20;;;;;;;1.08;79.41;99814.73;107146;1257;74561;-40
2023/12/15 08:38:28;;;;;;;15.40;8.70;;;;;;;1.15;79.15;99818.07;107162;1257;67733;-39
2023/12/15 08:40:55;;;;;;;15.60;9.50;;;;;;;1.22;78.63;99822.84;107167;1258;72726;-39
2023/12/15 08:43:23;;;;;;;14.50;10.00;;;;;;;1.18;78.76;99824.92;107155;1260;60460;-39
2023/12/15 08:45:50;;;;;;;14.20;9.60;;;;;;;1.16;79.03;99831.78;107187;1257;60319;-39
2023/12/15 08:48:18;;;;;;;17.70;10.60;;;;;;;1.15;79.24;99835.33;107180;1257;72593;-40
2023/12/15 08:50:46;;;;;;;16.00;9.80;;;;;;;1.15;79.20;99838.85;107191;1257;67895;-39
2023/12/15 08:53:15;;;;;;;13.00;9.40;;;;;;;1.21;79.04;99844.33;107200;1257;72622;-39
2023/12/15 08:55:42;;;;;;;12.40;8.80;;;;;;;1.27;78.85;99851.25;107218;1260;60563;-39
2023/12/15 08:58:10;;;;;;;12.60;9.00;;;;;;;1.26;78.93;99847.30;107137;1263;60425;-39
2023/12/15 09:00:38;;;;;;;14.00;9.90;;;;;;;1.26;79.14;99852.48;107181;1257;74020;-40
2023/12/15 09:03:05;;;;;;;14.60;9.70;;;;;;;1.27;79.34;99853.33;107187;1260;67580;-40
2023/12/15 09:05:33;;;;;;;12.30;8.80;;;;;;;1.30;79.24;99853.27;107165;1262;72526;-40
2023/12/15 09:08:21;;;;;;;12.20;8.00;;;;;;;1.41;79.12;99857.06;107159;1257;60938;-40
2023/12/15 09:10:50;;;;;;;14.20;9.10;;;;;;;1.52;78.58;99857.73;107184;1257;60291;-40
2023/12/15 09:13:18;;;;;;;13.20;9.20;;;;;;;1.57;78.70;99858.15;107230;1257;72863;-39
2023/12/15 09:15:46;;;;;;;13.80;8.80;;;;;;;1.57;78.20;99858.14;107160;1257;66445;-40
2023/12/15 09:18:14;;;;;;;12.70;8.70;;;;;;;1.56;78.33;99863.18;107147;1257;72714;-39
2023/12/15 09:20:42;;;;;;;14.00;8.90;;;;;;;1.55;78.00;99864.90;107177;1257;61652;-40
2023/12/15 09:23:10;;;;;;;12.60;8.30;;;;;;;1.51;77.55;99864.73;107200;1257;60440;-40
2023/12/15 09:25:38;;;;;;;10.80;7.80;;;;;;;1.56;77.33;99867.50;107174;1259;73880;-40
2023/12/15 09:28:05;;;;;;;13.70;8.30;;;;;;;1.65;77.10;99873.85;107203;1257;66438;-40
2023/12/15 09:30:33;;;;;;;11.90;8.30;;;;;;;1.67;77.31;99880.36;107150;1257;73518;-40
2023/12/15 09:33:01;;;;;;;11.20;8.00;;;;;;;1.67;77.03;99880.67;106406;1257;1003638;-40
2023/12/15 09:35:29;;;;;;;11.70;8.00;;;;;;;1.67;77.10;99879.28;107189;1257;60334;-40
2023/12/15 09:37:57;;;;;;;11.10;7.80;;;;;;;1.70;76.94;99883.45;107166;1257;73851;-41
2023/12/15 09:40:24;;;;;;;11.60;7.40;;;;;;;1.70;76.60;99879.34;107190;1257;67631;-41
2023/12/15 09:42:52;;;;;;;13.30;7.60;;;;;;;1.70;76.38;99878.69;107147;1260;72711;-41
2023/12/15 09:45:19;;;;;;;11.60;8.50;;;;;;;1.75;76.32;99879.06;107040;1259;60565;-40
2023/12/15 09:47:47;;;;;;;13.70;8.80;;;;;;;1.77;76.71;99882.14;107148;1257;60030;-41
2023/12/15 09:50:16;;;;;;;14.30;9.50;;;;;;;1.77;76.58;99889.41;107113;1257;73870;-41
2023/12/15 09:52:44;;;;;;;12.60;8.90;;;;;;;1.75;76.32;99898.68;107189;1257;67173;-41
2023/12/15 09:55:11;;;;;;;14.50;9.10;;;;;;;1.73;76.41;99894.65;107002;1257;73069;-41
2023/12/15 09:57:39;;;;;;;16.00;8.20;;;;;;;1.71;76.24;99899.17;107408;1254;60483;-41
2023/12/15 10:00:07;;;;;;;10.00;7.20;;;;;;;1.73;76.15;99904.16;107524;1253;60354;-41
2023/12/15 10:02:42;;;;;;;12.90;8.10;;;;;;;1.74;76.00;99912.65;107466;1254;74238;-41
2023/12/15 10:05:10;;;;;;;9.00;6.20;;;;;;;1.68;75.96;99917.70;107498;1254;67923;-41
2023/12/15 10:07:38;;;;;;;11.10;7.80;;;;;;;1.63;76.36;99919.64;107512;1254;73270;-41
2023/12/15 10:10:06;;;;;;;10.60;7.50;;;;;;;1.60;76.49;99920.03;107492;1254;60424;-41
2023/12/15 10:12:34;;;;;;;11.70;7.90;;;;;;;1.63;76.40;99925.61;107487;1254;60419;-41
2023/12/15 10:15:02;;;;;;;11.60;7.90;;;;;;;1.69;76.32;99925.49;107510;1253;73985;-41
2023/12/15 10:17:30;;;;;;;12.90;8.80;;;;;;;1.67;76.40;99925.09;107492;1254;67750;-40
2023/12/15 10:20:06;;;;;;;13.60;8.70;;;;;;;1.64;76.88;99930.84;107461;1254;72699;-40
2023/12/15 10:22:34;;;;;;;13.00;8.80;;;;;;;1.63;76.93;99930.65;107541;1254;60446;-40
2023/12/15 10:25:15;;;;;;;12.50;8.70;;;;;;;1.63;76.68;99935.30;107520;1254;59648;-41
2023/12/15 10:27:43;;;;;;;12.20;8.50;;;;;;;1.66;76.94;99935.09;107506;1254;73839;-41
2023/12/15 10:30:11;;;;;;;12.70;8.60;;;;;;;1.68;76.73;99933.90;107526;1253;67166;-41
2023/12/15 10:32:40;;;;;;;14.40;9.60;;;;;;;1.63;77.03;99933.85;107504;1254;71100;-41
2023/12/15 10:35:10;;;;;;;13.50;9.10;;;;;;;1.58;77.20;99925.30;107501;1254;60267;-40
2023/12/15 10:37:38;;;;;;;13.50;9.50;;;;;;;1.55;77.48;99924.66;107464;1257;60422;-41
2023/12/15 10:40:06;;;;;;;13.10;8.80;;;;;;;1.54;77.58;99928.64;107553;1254;73819;-41
2023/12/15 10:42:35;;;;;;;11.50;7.80;;;;;;;1.59;77.64;99926.79;107564;1253;66890;-41
2023/12/15 10:45:05;;;;;;;14.10;8.60;;;;;;;1.63;77.40;99926.42;107523;1254;72841;-41
2023/12/15 10:47:33;;;;;;;13.40;8.70;;;;;;;1.60;77.71;99926.77;106748;1253;1003072;-41
2023/12/15 10:50:02;;;;;;;12.50;8.70;;;;;;;1.56;77.84;99932.38;107536;1253;62159;-41
2023/12/15 10:52:33;;;;;;;12.70;8.70;;;;;;;1.54;78.22;99934.34;107559;1253;72561;-41
2023/12/15 10:55:04;;;;;;;13.10;7.90;;;;;;;1.59;78.36;99931.86;107494;1254;67736;-41
2023/12/15 10:57:32;;;;;;;12.60;7.80;;;;;;;1.69;78.01;99931.95;107469;1254;74897;-41
2023/12/15 11:00:04;;;;;;;12.60;8.00;;;;;;;1.72;77.82;99930.91;107496;1259;60466;-41
2023/12/15 11:02:32;;;;;;;10.10;7.20;;;;;;;1.72;77.64;99925.61;107573;1253;61060;-41
2023/12/15 11:05:00;;;;;;;12.80;8.30;;;;;;;1.75;77.52;99935.50;107473;1254;72705;-41
2023/12/15 11:07:28;;;;;;;11.70;7.30;;;;;;;1.74;77.29;99936.59;107515;1253;68021;-41
2023/12/15 11:09:57;;;;;;;10.00;7.10;;;;;;;1.77;77.07;99938.38;107504;1254;71452;-40
2023/12/15 11:12:37;;;;;;;11.10;7.40;;;;;;;1.83;76.71;99944.02;107478;1254;60873;-40
2023/12/15 11:15:10;;;;;;;12.10;7.70;;;;;;;1.87;76.54;99949.53;107523;1254;62293;-41
2023/12/15 11:17:43;;;;;;;10.10;7.50;;;;;;;1.83;76.77;99948.89;107516;1254;72595;-41
2023/12/15 11:20:31;;;;;;;11.10;7.80;;;;;;;1.78;77.04;99954.57;107543;1254;67752;-41
2023/12/15 11:23:05;;;;;;;11.50;7.70;;;;;;;1.73;77.34;99952.59;107480;1254;74817;-41
2023/12/15 11:25:37;;;;;;;9.30;6.90;;;;;;;1.73;77.45;99956.17;107488;1254;63629;-41